PWSweather.com
Personal Weather Stations
Station Observations
UXOLA
Alcoy, AlcoyES

AlcoyAlcoyES

Lat: 38.70299, Lon: -0.48184

Elevation: 1935

Station Type: PCE FWS-20,

http://www.fiestasalcoy.xyz

High Low Average
Temperature 50.5°F10.3°C 41.5°F5.3°C 50.0°F10.0°C
Dew Point 41.5°F5.3°C 29.1°F-1.6°C 40.4°F4.7°C
Winds 10.7 mph 17.2 kmh Calm Calm 4.0 mph WSW6.4 kmh WSW
Wind Gusts 14.5 mph23.3 kmh 3.1 mph5.0 kmh 8.0 mph12.9 kmh
Humidity 72% 60% 70%
Pressure 30.16 in1021.3 mb 29.75 in1007.5 mb -
Precipitation 0.07 in1.8 mm - -
Hour Temp Dew Point Humidity Winds Wind Gusts Pressure Precip Precip Rate Daily Precip Total
12:00 AM 50.5°F10.3°C 37.2°F2.9°C 60% 2.2 mph WSW3.5 kmh WSW 9.8 mph15.8 kmh 30.16 in1021.3 mb 0.00 in0.0 mm 0.00 in0.0 mm 0.00 in0.0 mm
12:15 AM 50.2°F10.1°C 36.8°F2.7°C 60% 10.7 mph SW17.2 kmh SW 14.5 mph23.3 kmh 30.15 in1021.0 mb 0.00 in0.0 mm 0.00 in0.0 mm 0.00 in0.0 mm
12:30 AM 49.8°F9.9°C 36.5°F2.5°C 60% 7.6 mph SW12.2 kmh SW 11.4 mph18.3 kmh 30.16 in1021.3 mb 0.00 in0.0 mm 0.00 in0.0 mm 0.00 in0.0 mm
12:45 AM 49.8°F9.9°C 36.9°F2.7°C 61% 1.6 mph W2.6 kmh W 7.6 mph12.2 kmh 30.16 in1021.3 mb 0.00 in0.0 mm 0.00 in0.0 mm 0.00 in0.0 mm
01:00 AM 50.2°F10.1°C 37.3°F2.9°C 61% 6.9 mph SW11.1 kmh SW 13.0 mph20.9 kmh 30.15 in1021.0 mb 0.00 in0.0 mm 0.00 in0.0 mm 0.00 in0.0 mm
01:15 AM 50.0°F10.0°C 37.1°F2.8°C 61% 6.9 mph W11.1 kmh W 10.7 mph17.2 kmh 30.14 in1020.7 mb 0.00 in0.0 mm 0.00 in0.0 mm 0.00 in0.0 mm
01:30 AM 49.8°F9.9°C 37.3°F2.9°C 62% 3.8 mph N6.1 kmh N 7.6 mph12.2 kmh 30.14 in1020.7 mb 0.00 in0.0 mm 0.00 in0.0 mm 0.00 in0.0 mm
01:45 AM 49.8°F9.9°C 37.7°F3.2°C 63% 3.1 mph WSW5.0 kmh WSW 8.3 mph13.4 kmh 30.14 in1020.7 mb 0.00 in0.0 mm 0.00 in0.0 mm 0.00 in0.0 mm
02:00 AM 49.8°F9.9°C 38.1°F3.4°C 64% 2.2 mph WSW3.5 kmh WSW 7.6 mph12.2 kmh 30.14 in1020.7 mb 0.00 in0.0 mm 0.00 in0.0 mm 0.00 in0.0 mm
02:15 AM 50.0°F10.0°C 38.3°F3.5°C 64% 3.1 mph NW5.0 kmh NW 7.6 mph12.2 kmh 30.13 in1020.3 mb 0.00 in0.0 mm 0.00 in0.0 mm 0.00 in0.0 mm
02:30 AM 50.2°F10.1°C 39.3°F4.1°C 66% 1.6 mph WSW2.6 kmh WSW 12.1 mph19.5 kmh 30.14 in1020.7 mb 0.00 in0.0 mm 0.00 in0.0 mm 0.00 in0.0 mm
02:45 AM 50.2°F10.1°C 39.7°F4.3°C 67% 9.8 mph SW15.8 kmh SW 13.0 mph20.9 kmh 30.14 in1020.7 mb 0.00 in0.0 mm 0.00 in0.0 mm 0.00 in0.0 mm
03:00 AM 50.2°F10.1°C 39.7°F4.3°C 67% 3.1 mph WSW5.0 kmh WSW 11.4 mph18.3 kmh 30.13 in1020.3 mb 0.00 in0.0 mm 0.00 in0.0 mm 0.00 in0.0 mm
03:15 AM 49.6°F9.8°C 39.5°F4.2°C 68% 3.8 mph WSW6.1 kmh WSW 7.6 mph12.2 kmh 30.12 in1020.0 mb 0.00 in0.0 mm 0.00 in0.0 mm 0.00 in0.0 mm
03:30 AM 49.6°F9.8°C 39.9°F4.4°C 69% 3.1 mph SW5.0 kmh SW 6.9 mph11.1 kmh 30.12 in1020.0 mb 0.00 in0.0 mm 0.00 in0.0 mm 0.00 in0.0 mm
03:45 AM 49.3°F9.6°C 39.9°F4.4°C 70% 3.1 mph WSW5.0 kmh WSW 4.5 mph7.2 kmh 30.12 in1020.0 mb 0.00 in0.0 mm 0.00 in0.0 mm 0.00 in0.0 mm
04:00 AM 49.1°F9.5°C 39.7°F4.3°C 70% Calm Calm 5.4 mph8.7 kmh 30.12 in1020.0 mb 0.00 in0.0 mm 0.00 in0.0 mm 0.00 in0.0 mm
04:15 AM 49.1°F9.5°C 39.7°F4.3°C 70% 1.6 mph WSW2.6 kmh WSW 7.6 mph12.2 kmh 30.13 in1020.3 mb 0.00 in0.0 mm 0.00 in0.0 mm 0.00 in0.0 mm
04:30 AM 49.1°F9.5°C 40.1°F4.5°C 71% 3.1 mph SW5.0 kmh SW 6.0 mph9.7 kmh 30.12 in1020.0 mb 0.00 in0.0 mm 0.00 in0.0 mm 0.00 in0.0 mm
04:45 AM 49.1°F9.5°C 40.1°F4.5°C 71% 1.6 mph WSW2.6 kmh WSW 3.1 mph5.0 kmh 30.12 in1020.0 mb 0.00 in0.0 mm 0.00 in0.0 mm 0.00 in0.0 mm
05:00 AM 49.1°F9.5°C 40.1°F4.5°C 71% 2.2 mph SW3.5 kmh SW 4.5 mph7.2 kmh 30.11 in1019.6 mb 0.00 in0.0 mm 0.00 in0.0 mm 0.00 in0.0 mm
05:15 AM 49.1°F9.5°C 40.1°F4.5°C 71% 0.7 mph SW1.1 kmh SW 3.8 mph6.1 kmh 30.10 in1019.3 mb 0.00 in0.0 mm 0.00 in0.0 mm 0.00 in0.0 mm
05:30 AM 49.1°F9.5°C 40.1°F4.5°C 71% 1.6 mph S2.6 kmh S 3.8 mph6.1 kmh 30.11 in1019.6 mb 0.00 in0.0 mm 0.00 in0.0 mm 0.00 in0.0 mm
05:45 AM 49.3°F9.6°C 40.3°F4.6°C 71% 4.5 mph WSW7.2 kmh WSW 6.9 mph11.1 kmh 30.10 in1019.3 mb 0.00 in0.0 mm 0.00 in0.0 mm 0.00 in0.0 mm
06:00 AM 49.3°F9.6°C 40.3°F4.6°C 71% 0.7 mph SW1.1 kmh SW 3.8 mph6.1 kmh 30.11 in1019.6 mb 0.00 in0.0 mm 0.00 in0.0 mm 0.00 in0.0 mm
06:15 AM 49.5°F9.7°C 40.8°F4.9°C 72% 1.6 mph WSW2.6 kmh WSW 3.1 mph5.0 kmh 30.10 in1019.3 mb 0.00 in0.0 mm 0.00 in0.0 mm 0.00 in0.0 mm
06:30 AM 49.3°F9.6°C 40.6°F4.8°C 72% 2.2 mph WSW3.5 kmh WSW 3.1 mph5.0 kmh 30.10 in1019.3 mb 0.00 in0.0 mm 0.00 in0.0 mm 0.00 in0.0 mm
06:45 AM 49.3°F9.6°C 40.6°F4.8°C 72% 4.5 mph SW7.2 kmh SW 8.3 mph13.4 kmh 30.09 in1019.0 mb 0.00 in0.0 mm 0.00 in0.0 mm 0.00 in0.0 mm
07:00 AM 49.3°F9.6°C 40.6°F4.8°C 72% 5.4 mph SW8.7 kmh SW 11.4 mph18.3 kmh 30.10 in1019.3 mb 0.00 in0.0 mm 0.00 in0.0 mm 0.00 in0.0 mm
07:15 AM 49.5°F9.7°C 40.8°F4.9°C 72% 3.1 mph WSW5.0 kmh WSW 6.9 mph11.1 kmh 30.10 in1019.3 mb 0.00 in0.0 mm 0.00 in0.0 mm 0.00 in0.0 mm
07:30 AM 49.5°F9.7°C 40.8°F4.9°C 72% 4.5 mph SW7.2 kmh SW 10.7 mph17.2 kmh 30.10 in1019.3 mb 0.00 in0.0 mm 0.00 in0.0 mm 0.00 in0.0 mm
07:45 AM 49.5°F9.7°C 40.8°F4.9°C 72% 3.8 mph WNW6.1 kmh WNW 13.6 mph21.9 kmh 30.11 in1019.6 mb 0.00 in0.0 mm 0.00 in0.0 mm 0.00 in0.0 mm
08:00 AM 49.8°F9.9°C 40.8°F4.9°C 71% 6.0 mph SW9.7 kmh SW 13.0 mph20.9 kmh 30.11 in1019.6 mb 0.00 in0.0 mm 0.00 in0.0 mm 0.00 in0.0 mm
08:15 AM 49.6°F9.8°C 40.6°F4.8°C 71% 6.0 mph WSW9.7 kmh WSW 9.8 mph15.8 kmh 30.11 in1019.6 mb 0.00 in0.0 mm 0.00 in0.0 mm 0.00 in0.0 mm
08:30 AM 49.8°F9.9°C 40.8°F4.9°C 71% 3.1 mph W5.0 kmh W 13.0 mph20.9 kmh 30.11 in1019.6 mb 0.00 in0.0 mm 0.00 in0.0 mm 0.00 in0.0 mm
08:45 AM 49.8°F9.9°C 40.8°F4.9°C 71% 4.5 mph WSW7.2 kmh WSW 8.3 mph13.4 kmh 30.11 in1019.6 mb 0.00 in0.0 mm 0.00 in0.0 mm 0.00 in0.0 mm
09:00 AM 49.8°F9.9°C 40.4°F4.7°C 70% 4.5 mph SW7.2 kmh SW 9.8 mph15.8 kmh 30.12 in1020.0 mb 0.00 in0.0 mm 0.00 in0.0 mm 0.00 in0.0 mm
09:15 AM 49.8°F9.9°C 40.4°F4.7°C 70% 5.4 mph SW8.7 kmh SW 9.2 mph14.8 kmh 30.12 in1020.0 mb 0.00 in0.0 mm 0.00 in0.0 mm 0.00 in0.0 mm
09:30 AM 49.6°F9.8°C 40.3°F4.6°C 70% 5.4 mph SW8.7 kmh SW 7.6 mph12.2 kmh 30.12 in1020.0 mb 0.00 in0.0 mm 0.00 in0.0 mm 0.00 in0.0 mm
09:45 AM 49.6°F9.8°C 40.3°F4.6°C 70% 3.1 mph WSW5.0 kmh WSW 9.8 mph15.8 kmh 30.12 in1020.0 mb 0.00 in0.0 mm 0.00 in0.0 mm 0.00 in0.0 mm
10:00 AM 49.8°F9.9°C 40.4°F4.7°C 70% 5.4 mph WSW8.7 kmh WSW 11.4 mph18.3 kmh 30.13 in1020.3 mb 0.00 in0.0 mm 0.00 in0.0 mm 0.00 in0.0 mm
10:15 AM 49.8°F9.9°C 40.4°F4.7°C 70% 2.2 mph SW3.5 kmh SW 6.9 mph11.1 kmh 30.13 in1020.3 mb 0.00 in0.0 mm 0.00 in0.0 mm 0.00 in0.0 mm
10:30 AM 49.8°F9.9°C 40.4°F4.7°C 70% 4.5 mph WSW7.2 kmh WSW 6.9 mph11.1 kmh 30.13 in1020.3 mb 0.00 in0.0 mm 0.00 in0.0 mm 0.00 in0.0 mm
10:45 AM 50.0°F10.0°C 40.6°F4.8°C 70% 0.7 mph WSW1.1 kmh WSW 3.8 mph6.1 kmh 30.12 in1020.0 mb 0.00 in0.0 mm 0.00 in0.0 mm 0.00 in0.0 mm
11:00 AM 50.2°F10.1°C 40.8°F4.9°C 70% 0.7 mph WSW1.1 kmh WSW 3.8 mph6.1 kmh 30.13 in1020.3 mb 0.00 in0.0 mm 0.00 in0.0 mm 0.00 in0.0 mm
11:15 AM 50.2°F10.1°C 40.8°F4.9°C 70% 5.4 mph WSW8.7 kmh WSW 8.3 mph13.4 kmh 30.13 in1020.3 mb 0.00 in0.0 mm 0.00 in0.0 mm 0.00 in0.0 mm
11:30 AM 50.2°F10.1°C 40.8°F4.9°C 70% 3.8 mph SW6.1 kmh SW 6.9 mph11.1 kmh 30.12 in1020.0 mb 0.00 in0.0 mm 0.00 in0.0 mm 0.00 in0.0 mm
11:45 AM 50.4°F10.2°C 41.0°F5.0°C 70% 3.8 mph WSW6.1 kmh WSW 7.6 mph12.2 kmh 30.13 in1020.3 mb 0.00 in0.0 mm 0.00 in0.0 mm 0.00 in0.0 mm
12:00 PM 50.5°F10.3°C 41.1°F5.1°C 70% 3.1 mph SW5.0 kmh SW 7.6 mph12.2 kmh 30.13 in1020.3 mb 0.00 in0.0 mm 0.00 in0.0 mm 0.00 in0.0 mm
12:15 PM 50.5°F10.3°C 41.5°F5.3°C 71% 3.8 mph WSW6.1 kmh WSW 7.6 mph12.2 kmh 30.12 in1020.0 mb 0.00 in0.0 mm 0.00 in0.0 mm 0.00 in0.0 mm
12:30 PM 50.5°F10.3°C 41.5°F5.3°C 71% 3.8 mph WSW6.1 kmh WSW 7.6 mph12.2 kmh 30.12 in1020.0 mb 0.00 in0.0 mm 0.00 in0.0 mm 0.00 in0.0 mm
12:45 PM 50.5°F10.3°C 41.5°F5.3°C 71% 3.8 mph WSW6.1 kmh WSW 7.6 mph12.2 kmh 30.12 in1020.0 mb 0.00 in0.0 mm 0.00 in0.0 mm 0.00 in0.0 mm
01:00 PM 50.5°F10.3°C 41.5°F5.3°C 71% 3.8 mph WSW6.1 kmh WSW 7.6 mph12.2 kmh 30.12 in1020.0 mb 0.00 in0.0 mm 0.00 in0.0 mm 0.00 in0.0 mm
01:15 PM 50.5°F10.3°C 41.5°F5.3°C 71% 3.8 mph WSW6.1 kmh WSW 7.6 mph12.2 kmh 30.12 in1020.0 mb 0.00 in0.0 mm 0.00 in0.0 mm 0.00 in0.0 mm
01:30 PM 50.5°F10.3°C 41.5°F5.3°C 71% 3.8 mph WSW6.1 kmh WSW 7.6 mph12.2 kmh 30.12 in1020.0 mb 0.00 in0.0 mm 0.00 in0.0 mm 0.00 in0.0 mm
01:45 PM 50.5°F10.3°C 41.5°F5.3°C 71% 3.8 mph WSW6.1 kmh WSW 7.6 mph12.2 kmh 30.12 in1020.0 mb 0.00 in0.0 mm 0.00 in0.0 mm 0.00 in0.0 mm
02:00 PM 50.5°F10.3°C 41.5°F5.3°C 71% 3.8 mph WSW6.1 kmh WSW 7.6 mph12.2 kmh 30.12 in1020.0 mb 0.00 in0.0 mm 0.00 in0.0 mm 0.00 in0.0 mm
02:15 PM 50.5°F10.3°C 41.5°F5.3°C 71% 3.8 mph WSW6.1 kmh WSW 7.6 mph12.2 kmh 30.12 in1020.0 mb 0.00 in0.0 mm 0.00 in0.0 mm 0.00 in0.0 mm
02:30 PM 50.5°F10.3°C 41.5°F5.3°C 71% 3.8 mph WSW6.1 kmh WSW 7.6 mph12.2 kmh 30.12 in1020.0 mb 0.00 in0.0 mm 0.00 in0.0 mm 0.00 in0.0 mm
02:45 PM 50.5°F10.3°C 41.5°F5.3°C 71% 3.8 mph WSW6.1 kmh WSW 7.6 mph12.2 kmh 30.12 in1020.0 mb 0.00 in0.0 mm 0.00 in0.0 mm 0.00 in0.0 mm
03:00 PM 50.5°F10.3°C 41.5°F5.3°C 71% 3.8 mph WSW6.1 kmh WSW 7.6 mph12.2 kmh 30.12 in1020.0 mb 0.00 in0.0 mm 0.00 in0.0 mm 0.00 in0.0 mm
03:15 PM 50.5°F10.3°C 41.5°F5.3°C 71% 3.8 mph WSW6.1 kmh WSW 7.6 mph12.2 kmh 30.12 in1020.0 mb 0.00 in0.0 mm 0.00 in0.0 mm 0.00 in0.0 mm
03:30 PM 50.5°F10.3°C 41.5°F5.3°C 71% 3.8 mph WSW6.1 kmh WSW 7.6 mph12.2 kmh 30.12 in1020.0 mb 0.00 in0.0 mm 0.00 in0.0 mm 0.00 in0.0 mm
03:45 PM 50.5°F10.3°C 41.5°F5.3°C 71% 3.8 mph WSW6.1 kmh WSW 7.6 mph12.2 kmh 30.12 in1020.0 mb 0.00 in0.0 mm 0.00 in0.0 mm 0.00 in0.0 mm
04:00 PM 50.5°F10.3°C 41.5°F5.3°C 71% 3.8 mph WSW6.1 kmh WSW 7.6 mph12.2 kmh 30.12 in1020.0 mb 0.00 in0.0 mm 0.00 in0.0 mm 0.00 in0.0 mm
04:15 PM 50.5°F10.3°C 41.5°F5.3°C 71% 3.8 mph WSW6.1 kmh WSW 7.6 mph12.2 kmh 30.12 in1020.0 mb 0.00 in0.0 mm 0.00 in0.0 mm 0.00 in0.0 mm
04:30 PM 50.5°F10.3°C 41.5°F5.3°C 71% 3.8 mph WSW6.1 kmh WSW 7.6 mph12.2 kmh 30.12 in1020.0 mb 0.00 in0.0 mm 0.00 in0.0 mm 0.00 in0.0 mm
04:45 PM 50.5°F10.3°C 41.5°F5.3°C 71% 3.8 mph WSW6.1 kmh WSW 7.6 mph12.2 kmh 30.12 in1020.0 mb 0.00 in0.0 mm 0.00 in0.0 mm 0.00 in0.0 mm
05:00 PM 50.5°F10.3°C 41.5°F5.3°C 71% 3.8 mph WSW6.1 kmh WSW 7.6 mph12.2 kmh 30.12 in1020.0 mb 0.00 in0.0 mm 0.00 in0.0 mm 0.00 in0.0 mm
05:15 PM 50.5°F10.3°C 41.5°F5.3°C 71% 3.8 mph WSW6.1 kmh WSW 7.6 mph12.2 kmh 30.12 in1020.0 mb 0.00 in0.0 mm 0.00 in0.0 mm 0.00 in0.0 mm
05:30 PM 50.5°F10.3°C 41.5°F5.3°C 71% 3.8 mph WSW6.1 kmh WSW 7.6 mph12.2 kmh 30.12 in1020.0 mb 0.00 in0.0 mm 0.00 in0.0 mm 0.00 in0.0 mm
05:45 PM 50.5°F10.3°C 41.5°F5.3°C 71% 3.8 mph WSW6.1 kmh WSW 7.6 mph12.2 kmh 30.12 in1020.0 mb 0.00 in0.0 mm 0.00 in0.0 mm 0.00 in0.0 mm
06:00 PM 50.5°F10.3°C 41.5°F5.3°C 71% 3.8 mph WSW6.1 kmh WSW 7.6 mph12.2 kmh 30.12 in1020.0 mb 0.00 in0.0 mm 0.00 in0.0 mm 0.00 in0.0 mm
06:15 PM 50.5°F10.3°C 41.5°F5.3°C 71% 3.8 mph WSW6.1 kmh WSW 7.6 mph12.2 kmh 30.12 in1020.0 mb 0.00 in0.0 mm 0.00 in0.0 mm 0.00 in0.0 mm
06:30 PM 50.5°F10.3°C 41.5°F5.3°C 71% 3.8 mph WSW6.1 kmh WSW 7.6 mph12.2 kmh 30.12 in1020.0 mb 0.00 in0.0 mm 0.00 in0.0 mm 0.00 in0.0 mm
06:45 PM 50.5°F10.3°C 41.5°F5.3°C 71% 3.8 mph WSW6.1 kmh WSW 7.6 mph12.2 kmh 30.12 in1020.0 mb 0.00 in0.0 mm 0.00 in0.0 mm 0.00 in0.0 mm
07:00 PM 50.5°F10.3°C 41.5°F5.3°C 71% 3.8 mph WSW6.1 kmh WSW 7.6 mph12.2 kmh 30.12 in1020.0 mb 0.00 in0.0 mm 0.00 in0.0 mm 0.00 in0.0 mm
07:15 PM 50.5°F10.3°C 41.5°F5.3°C 71% 3.8 mph WSW6.1 kmh WSW 7.6 mph12.2 kmh 30.12 in1020.0 mb 0.00 in0.0 mm 0.00 in0.0 mm 0.00 in0.0 mm
07:30 PM 50.5°F10.3°C 41.5°F5.3°C 71% 3.8 mph WSW6.1 kmh WSW 7.6 mph12.2 kmh 30.12 in1020.0 mb 0.00 in0.0 mm 0.00 in0.0 mm 0.00 in0.0 mm
07:45 PM 50.5°F10.3°C 41.5°F5.3°C 71% 3.8 mph WSW6.1 kmh WSW 7.6 mph12.2 kmh 30.12 in1020.0 mb 0.00 in0.0 mm 0.00 in0.0 mm 0.00 in0.0 mm
08:00 PM 50.5°F10.3°C 41.5°F5.3°C 71% 3.8 mph WSW6.1 kmh WSW 7.6 mph12.2 kmh 30.12 in1020.0 mb 0.00 in0.0 mm 0.00 in0.0 mm 0.00 in0.0 mm
08:15 PM 50.5°F10.3°C 41.5°F5.3°C 71% 3.8 mph WSW6.1 kmh WSW 7.6 mph12.2 kmh 30.12 in1020.0 mb 0.00 in0.0 mm 0.00 in0.0 mm 0.00 in0.0 mm
08:30 PM 50.5°F10.3°C 41.5°F5.3°C 71% 3.8 mph WSW6.1 kmh WSW 7.6 mph12.2 kmh 30.12 in1020.0 mb 0.00 in0.0 mm 0.00 in0.0 mm 0.00 in0.0 mm
08:45 PM 50.5°F10.3°C 41.5°F5.3°C 71% 3.8 mph WSW6.1 kmh WSW 7.6 mph12.2 kmh 30.12 in1020.0 mb 0.00 in0.0 mm 0.00 in0.0 mm 0.00 in0.0 mm
09:00 PM 50.5°F10.3°C 41.5°F5.3°C 71% 3.8 mph WSW6.1 kmh WSW 7.6 mph12.2 kmh 30.12 in1020.0 mb 0.00 in0.0 mm 0.00 in0.0 mm 0.00 in0.0 mm
09:15 PM 50.5°F10.3°C 41.5°F5.3°C 71% 3.8 mph WSW6.1 kmh WSW 7.6 mph12.2 kmh 30.12 in1020.0 mb 0.00 in0.0 mm 0.00 in0.0 mm 0.00 in0.0 mm
09:30 PM 50.5°F10.3°C 41.5°F5.3°C 71% 3.8 mph WSW6.1 kmh WSW 7.6 mph12.2 kmh 30.12 in1020.0 mb 0.00 in0.0 mm 0.00 in0.0 mm 0.00 in0.0 mm
09:45 PM 50.5°F10.3°C 41.5°F5.3°C 71% 3.8 mph WSW6.1 kmh WSW 7.6 mph12.2 kmh 30.12 in1020.0 mb 0.00 in0.0 mm 0.00 in0.0 mm 0.00 in0.0 mm
10:00 PM 50.5°F10.3°C 41.5°F5.3°C 71% 3.8 mph WSW6.1 kmh WSW 7.6 mph12.2 kmh 30.12 in1020.0 mb 0.00 in0.0 mm 0.00 in0.0 mm 0.00 in0.0 mm
10:15 PM 50.5°F10.3°C 41.5°F5.3°C 71% 3.8 mph WSW6.1 kmh WSW 7.6 mph12.2 kmh 30.12 in1020.0 mb 0.00 in0.0 mm 0.00 in0.0 mm 0.00 in0.0 mm
10:30 PM 50.5°F10.3°C 41.5°F5.3°C 71% 3.8 mph WSW6.1 kmh WSW 7.6 mph12.2 kmh 30.12 in1020.0 mb 0.00 in0.0 mm 0.00 in0.0 mm 0.00 in0.0 mm
10:45 PM 50.5°F10.3°C 41.5°F5.3°C 71% 3.8 mph WSW6.1 kmh WSW 7.6 mph12.2 kmh 30.12 in1020.0 mb 0.00 in0.0 mm 0.00 in0.0 mm 0.00 in0.0 mm
11:45 PM 41.5°F5.3°C 29.1°F-1.6°C 61% 2.2 mph S3.5 kmh S 6.0 mph9.7 kmh 29.75 in1007.5 mb 0.00 in0.0 mm 0.00 in0.0 mm 0.07 in1.8 mm